Time;durP1;ratioP1;P1;durP2;ratioP2;P2;SDS_P1;SDS_P2;PMS_P1;PMS_P2;Temp;Humidity;BMP_temperature;BMP_pressure;BME280_temperature;BME280_humidity;BME280_pressure;Samples;Min_cycle;Max_cycle;Signal;HPM_P1;HPM_P2
2022/03/27 00:00:01;;;;;;;32.78;17.05;;;3.00;99.90;;;;;;5271101;28;20069;-77
2022/03/27 00:02:31;;;;;;;31.65;15.77;;;3.10;99.90;;;;;;5271293;28;20471;-77
2022/03/27 00:05:02;;;;;;;34.58;16.38;;;3.40;99.90;;;;;;5271234;28;20463;-77
2022/03/27 00:07:33;;;;;;;37.85;16.80;;;3.40;99.90;;;;;;5271365;28;20361;-77
2022/03/27 00:10:05;;;;;;;41.75;16.73;;;3.60;99.90;;;;;;5271089;28;20027;-78
2022/03/27 00:12:36;;;;;;;37.78;18.02;;;3.70;99.90;;;;;;5271090;28;20357;-79
2022/03/27 00:15:09;;;;;;;37.42;18.23;;;4.10;99.90;;;;;;5270872;28;20021;-77
2022/03/27 00:17:40;;;;;;;32.58;18.23;;;4.00;99.90;;;;;;5286631;28;20035;-78
2022/03/27 00:20:15;;;;;;;32.67;17.35;;;4.20;99.90;;;;;;5270936;28;20103;-78
2022/03/27 00:22:45;;;;;;;32.47;15.93;;;4.50;99.90;;;;;;5270829;28;20107;-78
2022/03/27 00:25:16;;;;;;;30.85;16.02;;;3.90;99.90;;;;;;5270693;28;20107;-78
2022/03/27 00:27:47;;;;;;;34.13;15.18;;;3.60;99.90;;;;;;5270691;28;20040;-77
2022/03/27 00:30:18;;;;;;;35.78;15.18;;;4.00;99.90;;;;;;5270725;28;20077;-80
2022/03/27 00:32:49;;;;;;;30.15;15.15;;;4.20;99.90;;;;;;5270702;28;20392;-79
2022/03/27 00:35:19;;;;;;;30.00;14.93;;;4.20;99.90;;;;;;5270301;28;20460;-80
2022/03/27 00:37:52;;;;;;;26.73;14.80;;;4.00;99.90;;;;;;5270612;28;20056;-78
2022/03/27 00:40:23;;;;;;;28.65;14.75;;;4.00;99.90;;;;;;5270489;28;20107;-78
2022/03/27 00:42:54;;;;;;;31.40;16.33;;;4.10;99.90;;;;;;5270455;28;20091;-82
2022/03/27 00:45:25;;;;;;;28.75;15.73;;;4.50;99.90;;;;;;5270488;28;20559;-83
2022/03/27 00:47:55;;;;;;;26.67;14.82;;;4.20;99.90;;;;;;5286036;28;20078;-82
2022/03/27 00:50:26;;;;;;;33.47;15.55;;;4.30;99.90;;;;;;5270273;28;20452;-78
2022/03/27 00:53:00;;;;;;;28.25;15.65;;;4.10;99.90;;;;;;5270660;28;20519;-78
2022/03/27 00:55:41;;;;;;;31.50;15.65;;;4.30;99.90;;;;;;5269801;28;20039;-77
2022/03/27 00:58:14;;;;;;;;;;;4.70;99.90;;;;;;5269624;28;20067;-77
2022/03/27 01:01:05;;;;;;;;;;;4.30;99.90;;;;;;5269389;28;20002;-77
2022/03/27 01:03:36;;;;;;;;;;;4.50;99.90;;;;;;5270480;28;19964;-80
2022/03/27 01:06:16;;;;;;;;;;;4.60;99.90;;;;;;5270407;28;19953;-83
2022/03/27 01:11:36;;;;;;;;;;;4.40;99.90;;;;;;5269813;28;19911;-83
2022/03/27 01:14:09;;;;;;;;;;;4.40;99.90;;;;;;5270856;28;19904;-77
2022/03/27 01:16:41;;;;;;;;;;;4.60;99.90;;;;;;5268919;28;19914;-78
2022/03/27 01:19:12;;;;;;;;;;;4.50;99.90;;;;;;5270251;28;19904;-78
2022/03/27 01:21:45;;;;;;;;;;;4.50;99.90;;;;;;5270202;28;19914;-80
2022/03/27 01:24:17;;;;;;;;;;;4.70;99.90;;;;;;5270133;28;19904;-80
2022/03/27 01:26:47;;;;;;;;;;;4.50;99.90;;;;;;5270017;28;19923;-78
2022/03/27 01:29:18;;;;;;;;;;;4.70;99.90;;;;;;5285781;28;20363;-82
2022/03/27 01:31:51;;;;;;;;;;;4.30;99.90;;;;;;5268806;28;20317;-83
2022/03/27 01:34:22;;;;;;;;;;;4.30;99.90;;;;;;5270005;28;20309;-78
2022/03/27 01:36:52;;;;;;;;;;;4.40;99.90;;;;;;5268371;28;19904;-78
2022/03/27 01:39:23;;;;;;;;;;;4.30;99.90;;;;;;5268637;28;19957;-78
2022/03/27 01:41:54;;;;;;;;;;;4.50;99.90;;;;;;5269952;28;19911;-78
2022/03/27 01:44:25;;;;;;;;;;;4.60;99.90;;;;;;5268606;28;19904;-78
2022/03/27 01:46:57;;;;;;;;;;;4.50;99.90;;;;;;5268149;28;20019;-78
2022/03/27 01:49:27;;;;;;;;;;;4.30;99.90;;;;;;5268562;28;20002;-82
2022/03/27 01:51:58;;;;;;;;;;;4.20;99.90;;;;;;5269815;28;19999;-78
2022/03/27 01:54:29;;;;;;;;;;;4.50;99.90;;;;;;5269939;28;19995;-83
2022/03/27 01:57:00;;;;;;;;;;;4.60;99.90;;;;;;5269514;28;20324;-81
2022/03/27 01:59:30;;;;;;;;;;;4.30;99.90;;;;;;5268071;28;19955;-82
2022/03/27 02:02:01;;;;;;;;;;;4.40;99.90;;;;;;5268444;28;20251;-78
2022/03/27 02:04:32;;;;;;;;;;;4.50;99.90;;;;;;5269674;28;19911;-77
2022/03/27 02:07:03;;;;;;;;;;;4.60;99.90;;;;;;5268305;28;19912;-78
2022/03/27 02:09:34;;;;;;;;;;;4.60;99.90;;;;;;5269752;28;19998;-82
2022/03/27 02:12:04;;;;;;;;;;;4.60;99.90;;;;;;5268317;28;20312;-78
2022/03/27 02:14:35;;;;;;;;;;;4.70;99.90;;;;;;5268288;28;19987;-82
2022/03/27 02:17:07;;;;;;;;;;;4.70;99.90;;;;;;5269198;28;19904;-78
2022/03/27 02:19:38;;;;;;;;;;;4.70;99.90;;;;;;5269599;28;19904;-81
2022/03/27 02:22:09;;;;;;;;;;;4.40;99.90;;;;;;5269523;28;19908;-82
2022/03/27 02:24:39;;;;;;;;;;;4.50;99.90;;;;;;5272645;28;19907;-78
2022/03/27 02:27:10;;;;;;;;;;;4.40;99.90;;;;;;5273207;28;19916;-79
2022/03/27 02:29:41;;;;;;;;;;;4.60;99.90;;;;;;5272332;28;20378;-80
2022/03/27 02:32:11;;;;;;;;;;;4.40;99.90;;;;;;5273185;28;19904;-83
2022/03/27 02:34:42;;;;;;;;;;;4.30;99.90;;;;;;5272174;28;19904;-78
2022/03/27 02:37:13;;;;;;;;;;;4.50;99.90;;;;;;5273467;28;19911;-78
2022/03/27 02:39:44;;;;;;;;;;;4.60;99.90;;;;;;5272134;28;19904;-83
2022/03/27 02:42:16;;;;;;;;;;;4.50;99.90;;;;;;5273539;28;19927;-77
2022/03/27 02:44:46;;;;;;;;;;;4.60;99.90;;;;;;5272040;28;20385;-80
2022/03/27 02:47:17;;;;;;;;;;;4.40;99.90;;;;;;5272784;28;19912;-80
2022/03/27 02:49:47;;;;;;;;;;;4.60;99.90;;;;;;5271608;28;19926;-83
2022/03/27 02:52:18;;;;;;;;;;;4.80;99.90;;;;;;5273112;28;20332;-81
2022/03/27 02:54:49;;;;;;;;;;;4.30;99.90;;;;;;5272987;28;20351;-83
2022/03/27 02:57:19;;;;;;;;;;;4.50;99.90;;;;;;5272879;28;19946;-82
2022/03/27 02:59:53;;;;;;;;;;;4.20;99.90;;;;;;5273138;28;19998;-82
2022/03/27 03:02:24;;;;;;;;;;;4.20;99.90;;;;;;5272924;28;20423;-82
2022/03/27 03:04:55;;;;;;;;;;;4.20;99.90;;;;;;5272974;28;19999;-78
2022/03/27 03:07:25;;;;;;;;;;;4.30;99.90;;;;;;5272762;28;19959;-78
2022/03/27 03:09:56;;;;;;;;;;;4.10;99.90;;;;;;5273052;28;20372;-78
2022/03/27 03:12:27;;;;;;;;;;;4.20;99.90;;;;;;5272771;28;19904;-78
2022/03/27 03:14:58;;;;;;;;;;;4.20;99.90;;;;;;5272736;28;19951;-82
2022/03/27 03:17:28;;;;;;;;;;;4.30;99.90;;;;;;5272590;28;19904;-78
2022/03/27 03:19:59;;;;;;;;;;;4.20;99.90;;;;;;5272774;28;19915;-78
2022/03/27 03:22:30;;;;;;;;;;;4.30;99.90;;;;;;5272536;28;20252;-82
2022/03/27 03:25:01;;;;;;;;;;;4.40;99.90;;;;;;5271052;28;19931;-80
2022/03/27 03:27:31;;;;;;;;;;;4.50;99.90;;;;;;5272678;28;19916;-78
2022/03/27 03:30:04;;;;;;;;;;;4.50;99.90;;;;;;5272367;28;19930;-78
2022/03/27 03:32:36;;;;;;;;;;;4.50;99.90;;;;;;5271064;28;19908;-78
2022/03/27 03:35:07;;;;;;;;;;;4.40;99.90;;;;;;5270361;28;19948;-78
2022/03/27 03:37:38;;;;;;;;;;;4.60;99.90;;;;;;5271041;28;19908;-78
2022/03/27 03:40:09;;;;;;;;;;;4.50;99.90;;;;;;5272377;28;19911;-79
2022/03/27 03:42:39;;;;;;;;;;;4.30;99.90;;;;;;5272146;28;20002;-81
2022/03/27 03:45:10;;;;;;;;;;;4.40;99.90;;;;;;5271673;28;19904;-78
2022/03/27 03:47:41;;;;;;;;;;;4.50;99.90;;;;;;5271972;28;19965;-82
2022/03/27 03:50:11;;;;;;;;;;;4.50;99.90;;;;;;5270675;28;20275;-82
2022/03/27 03:52:42;;;;;;;;;;;4.30;99.90;;;;;;5271917;28;20384;-82
2022/03/27 03:55:13;;;;;;;;;;;4.50;99.90;;;;;;5271744;28;20000;-83
2022/03/27 03:57:43;;;;;;;;;;;4.50;99.90;;;;;;5272082;28;19908;-83
2022/03/27 04:00:14;;;;;;;;;;;4.40;99.90;;;;;;5271779;28;20372;-83
2022/03/27 04:02:45;;;;;;;;;;;4.60;99.90;;;;;;5272087;28;19988;-82
2022/03/27 04:05:16;;;;;;;;;;;4.60;99.90;;;;;;5270436;28;20347;-77
2022/03/27 04:07:46;;;;;;;;;;;4.40;99.90;;;;;;5271573;28;19912;-82
2022/03/27 04:10:17;;;;;;;;;;;4.50;99.90;;;;;;5271536;28;20005;-81
2022/03/27 04:12:47;;;;;;;;;;;4.60;99.90;;;;;;5271569;28;19904;-82
2022/03/27 04:15:18;;;;;;;;;;;4.30;99.90;;;;;;5271602;28;19980;-79
2022/03/27 04:17:50;;;;;;;;;;;4.20;99.90;;;;;;5270168;28;19908;-82
2022/03/27 04:20:20;;;;;;;;;;;4.40;99.90;;;;;;5271330;28;19946;-82
2022/03/27 04:22:51;;;;;;;;;;;4.50;99.90;;;;;;5271363;28;20323;-82
2022/03/27 04:25:22;;;;;;;;;;;4.80;99.90;;;;;;5271178;28;19908;-83
2022/03/27 04:27:53;;;;;;;;;;;4.60;99.90;;;;;;5271127;28;19916;-78
2022/03/27 04:30:23;;;;;;;;;;;5.00;99.90;;;;;;5271177;28;19910;-81
2022/03/27 04:32:54;;;;;;;;;;;4.90;99.90;;;;;;5271124;28;19904;-82
2022/03/27 04:35:24;;;;;;;;;;;4.90;99.90;;;;;;5271091;28;19949;-83
2022/03/27 04:37:55;;;;;;;;;;;5.10;99.90;;;;;;5271641;28;19904;-79
2022/03/27 04:40:27;;;;;;;;;;;5.10;99.90;;;;;;5269704;28;20006;-78
2022/03/27 04:42:57;;;;;;;;;;;5.00;99.90;;;;;;5270901;28;19970;-79
2022/03/27 04:45:28;;;;;;;;;;;5.10;99.90;;;;;;5270912;28;19911;-79
2022/03/27 04:47:58;;;;;;;;;;;5.30;99.90;;;;;;5268609;28;19912;-78
2022/03/27 04:50:29;;;;;;;;;;;5.40;99.90;;;;;;5270750;28;19960;-79
2022/03/27 04:53:00;;;;;;;;;;;5.30;99.90;;;;;;5269502;28;19958;-79
2022/03/27 04:55:31;;;;;;;;;;;5.40;99.90;;;;;;5270390;28;20318;-79
2022/03/27 04:58:02;;;;;;;;;;;5.60;99.90;;;;;;5271002;28;19908;-78
2022/03/27 05:00:32;;;;;;;;;;;5.60;99.90;;;;;;5270283;28;19904;-78
2022/03/27 05:03:03;;;;;;;;;;;5.70;99.90;;;;;;5269300;28;19911;-78
2022/03/27 05:05:34;;;;;;;;;;;5.80;99.90;;;;;;5270508;28;20026;-78
2022/03/27 05:08:04;;;;;;;;;;;5.90;99.90;;;;;;5270509;28;19912;-83
2022/03/27 05:10:35;;;;;;;;;;;6.10;99.90;;;;;;5269092;28;20314;-84
2022/03/27 05:13:07;;;;;;;;;;;6.10;99.90;;;;;;5270649;28;19904;-78
2022/03/27 05:15:37;;;;;;;;;;;6.20;99.90;;;;;;5270309;28;19904;-79
2022/03/27 05:18:08;;;;;;;;;;;6.40;99.90;;;;;;5270361;28;19930;-83
2022/03/27 05:20:39;;;;;;;;;;;6.50;99.90;;;;;;5270241;28;19904;-79
2022/03/27 05:23:10;;;;;;;;;;;6.60;99.90;;;;;;5270320;28;19980;-79
2022/03/27 05:25:41;;;;;;;;;;;6.70;99.90;;;;;;5268767;28;19912;-79
2022/03/27 05:28:14;;;;;;;;;;;6.80;99.90;;;;;;5270099;28;19923;-78
2022/03/27 05:30:44;;;;;;;;;;;7.00;99.90;;;;;;5270453;28;19927;-83
2022/03/27 05:33:15;;;;;;;;;;;7.10;99.90;;;;;;5268845;28;19904;-79
2022/03/27 05:35:46;;;;;;;;;;;7.20;99.90;;;;;;5268723;28;19911;-79
2022/03/27 05:38:16;;;;;;;;;;;7.40;99.90;;;;;;5270041;28;19927;-79
2022/03/27 05:40:47;;;;;;;;;;;7.50;99.90;;;;;;5270033;28;20307;-82
2022/03/27 05:43:18;;;;;;;;;;;7.60;99.90;;;;;;5268644;28;19904;-82
2022/03/27 05:45:48;;;;;;;;;;;7.70;99.90;;;;;;5269761;28;19904;-82
2022/03/27 05:48:19;;;;;;;;;;;7.80;99.90;;;;;;5270396;28;20344;-79
2022/03/27 05:50:50;;;;;;;;;;;7.90;99.90;;;;;;5268571;28;19970;-83
2022/03/27 05:53:21;;;;;;;;;;;8.20;99.90;;;;;;5269749;28;19943;-84
2022/03/27 05:55:51;;;;;;;;;;;8.30;99.90;;;;;;5269435;28;19926;-83
2022/03/27 05:58:22;;;;;;;;;;;8.40;99.90;;;;;;5269781;28;20360;-81
2022/03/27 06:00:53;;;;;;;;;;;8.40;99.90;;;;;;5285405;28;19904;-84
2022/03/27 06:03:24;;;;;;;;;;;8.70;99.90;;;;;;5269632;28;19905;-80
2022/03/27 06:05:55;;;;;;;;;;;8.80;99.90;;;;;;5269284;28;19912;-79
2022/03/27 06:08:25;;;;;;;;;;;8.90;99.90;;;;;;5269679;28;19908;-80
2022/03/27 06:10:56;;;;;;;;;;;9.20;99.90;;;;;;5269104;28;19949;-79
2022/03/27 06:13:27;;;;;;;;;;;9.20;99.90;;;;;;5269550;28;20363;-80
2022/03/27 06:15:57;;;;;;;;;;;9.50;99.90;;;;;;5269886;28;19962;-78
2022/03/27 06:18:28;;;;;;;;;;;9.70;99.90;;;;;;5269615;28;20270;-82
2022/03/27 06:20:59;;;;;;;;;;;9.80;99.90;;;;;;5269866;28;19939;-79
2022/03/27 06:23:30;;;;;;;;;;;9.90;99.90;;;;;;5268234;28;20355;-79
2022/03/27 06:26:00;;;;;;;;;;;10.10;99.90;;;;;;5269255;28;19950;-85
2022/03/27 06:28:31;;;;;;;;;;;9.80;99.90;;;;;;5268123;28;19922;-80
2022/03/27 06:31:01;;;;;;;;;;;10.20;99.90;;;;;;5269412;28;19904;-83
2022/03/27 06:33:32;;;;;;;;;;;10.20;99.90;;;;;;5269196;28;19904;-85
2022/03/27 06:36:03;;;;;;;;;;;10.20;99.90;;;;;;5269368;28;20252;-79
2022/03/27 06:38:33;;;;;;;;;;;10.40;99.90;;;;;;5268855;28;19904;-79
2022/03/27 06:41:04;;;;;;;;;;;10.30;99.90;;;;;;5269555;28;19904;-79
2022/03/27 06:43:36;;;;;;;;;;;10.70;99.90;;;;;;5269220;28;19908;-79
2022/03/27 06:46:07;;;;;;;;;;;10.20;99.90;;;;;;5267942;28;19973;-79
2022/03/27 06:48:37;;;;;;;;;;;10.40;99.90;;;;;;5268000;28;19904;-79
2022/03/27 06:51:08;;;;;;;;;;;10.40;99.90;;;;;;5269244;28;20382;-80
2022/03/27 06:53:39;;;;;;;;;;;10.80;99.90;;;;;;5269205;28;19911;-78
2022/03/27 06:56:10;;;;;;;;;;;10.70;99.90;;;;;;5267620;28;20282;-82
2022/03/27 06:58:41;;;;;;;;;;;10.80;99.90;;;;;;5267863;28;19987;-84
2022/03/27 07:04:02;;;;;;;;;;;10.80;99.90;;;;;;5269074;28;19910;-79
2022/03/27 07:06:32;;;;;;;;;;;11.00;99.90;;;;;;5267777;28;19958;-80
2022/03/27 07:09:04;;;;;;;;;;;11.10;99.90;;;;;;5267759;28;20344;-83
2022/03/27 07:11:36;;;;;;;;;;;11.60;99.90;;;;;;5270832;28;19904;-80
2022/03/27 07:14:07;;;;;;;;;;;12.70;99.90;;;;;;5272814;28;20351;-80
2022/03/27 07:16:38;;;;;;;;;;;11.30;99.90;;;;;;5272341;28;19911;-80
2022/03/27 07:19:10;;;;;;;;;;;12.00;99.90;;;;;;5271364;28;20423;-80
2022/03/27 07:21:42;;;;;;;;;;;11.70;99.90;;;;;;5273019;28;19954;-80
2022/03/27 07:24:12;;;;;;;;;;;11.90;99.90;;;;;;5272571;28;20271;-84
2022/03/27 07:26:43;;;;;;;;;;;12.20;99.90;;;;;;5272250;28;19912;-84
2022/03/27 07:29:14;;;;;;;;;;;12.20;99.90;;;;;;5288086;28;19915;-83
2022/03/27 07:31:45;;;;;;;;;;;12.20;99.90;;;;;;5272363;28;20267;-81
2022/03/27 07:34:16;;;;;;;;;;;12.30;99.90;;;;;;5272535;28;19904;-82
2022/03/27 07:36:46;;;;;;;;;;;12.20;99.90;;;;;;5272341;28;19904;-83
2022/03/27 07:39:17;;;;;;;;;;;12.40;99.90;;;;;;5272283;28;19904;-80
2022/03/27 07:41:48;;;;;;;;;;;12.90;99.90;;;;;;5287953;28;20317;-80
2022/03/27 07:44:18;;;;;;;;;;;12.70;99.90;;;;;;5272055;28;19927;-83
2022/03/27 07:46:50;;;;;;;;;;;12.70;99.90;;;;;;5272055;28;20406;-82
2022/03/27 07:49:23;;;;;;;;;;;13.50;99.90;;;;;;5272042;28;20311;-84
2022/03/27 07:51:54;;;;;;;;;;;13.20;99.90;;;;;;5278164;28;19911;-83
2022/03/27 07:54:25;;;;;;;;;;;13.60;99.90;;;;;;5292984;27;20283;-84
2022/03/27 07:56:56;;;;;;;;;;;13.30;99.90;;;;;;5292716;27;19996;-85
2022/03/27 07:59:27;;;;;;;;;;;13.70;99.90;;;;;;5272619;28;19915;-81
2022/03/27 08:01:57;;;;;;;;;;;13.90;99.90;;;;;;5270320;28;19908;-82
2022/03/27 08:04:28;;;;;;;;;;;13.90;99.90;;;;;;5279489;28;19908;-85
2022/03/27 08:06:59;;;;;;;;;;;13.70;99.90;;;;;;5271036;28;19912;-85
2022/03/27 08:09:29;;;;;;;;;;;13.90;99.90;;;;;;5273631;28;19907;-79
2022/03/27 08:12:00;;;;;;;;;;;13.90;99.90;;;;;;5288624;28;19950;-84
2022/03/27 08:14:31;;;;;;;;;;;14.00;99.90;;;;;;5271562;28;19904;-84
2022/03/27 08:17:03;;;;;;;;;;;14.30;99.90;;;;;;5271288;28;19904;-80
2022/03/27 08:19:33;;;;;;;;;;;14.50;99.90;;;;;;5272360;28;19910;-83
2022/03/27 08:22:04;;;;;;;;;;;14.10;99.90;;;;;;5271323;28;20003;-82
2022/03/27 08:24:35;;;;;;;;;;;14.20;99.90;;;;;;5288138;28;20266;-84
2022/03/27 08:27:08;;;;;;;;;;;15.00;99.90;;;;;;5291914;28;19924;-80
2022/03/27 08:29:39;;;;;;;;;;;14.90;99.90;;;;;;5292217;28;19904;-81
2022/03/27 08:32:12;;;;;;;;;;;14.70;99.90;;;;;;5292226;28;19911;-82
2022/03/27 08:34:44;;;;;;;;;;;15.20;99.90;;;;;;5292193;28;19951;-83
2022/03/27 08:37:16;;;;;;;;;;;14.60;99.90;;;;;;5292217;28;19903;-83
2022/03/27 08:39:46;;;;;;;;;;;14.90;97.80;;;;;;5292189;28;19942;-81
2022/03/27 08:42:20;;;;;;;;;;;15.60;99.90;;;;;;5291991;28;19958;-83
2022/03/27 08:44:50;;;;;;;;;;;15.70;89.60;;;;;;5291875;28;19915;-82
2022/03/27 08:47:23;;;;;;;;;;;15.50;88.00;;;;;;5291839;28;19912;-82
2022/03/27 08:50:13;;;;;;;;;;;15.20;89.20;;;;;;5291792;27;19926;-82
2022/03/27 08:52:55;;;;;;;;;;;15.80;91.50;;;;;;5292205;28;19911;-81
2022/03/27 08:55:25;;;;;;;;;;;15.70;89.50;;;;;;5291507;28;19915;-81
2022/03/27 08:57:58;;;;;;;;;;;15.50;86.50;;;;;;5291839;28;20291;-84
2022/03/27 09:00:30;;;;;;;;;;;15.60;89.20;;;;;;5290418;28;19986;-83
2022/03/27 09:03:01;;;;;;;;;;;16.10;87.60;;;;;;5291471;28;20414;-84
2022/03/27 09:05:36;;;;;;;;;;;15.50;82.60;;;;;;5291610;28;19910;-84
2022/03/27 09:08:09;;;;;;;;;;;16.10;86.30;;;;;;5290347;28;19918;-86
2022/03/27 09:10:40;;;;;;;;;;;16.00;89.40;;;;;;5291369;28;19914;-83
2022/03/27 09:13:12;;;;;;;;;;;15.50;84.60;;;;;;5291553;28;19908;-84
2022/03/27 09:15:43;;;;;;;;;;;16.50;87.00;;;;;;5291385;28;19904;-84
2022/03/27 09:18:14;;;;;;;;;;;16.40;82.80;;;;;;5285721;28;20945;-84
2022/03/27 09:20:51;;;;;;;;;;;16.30;83.50;;;;;;5279602;28;19911;-83
2022/03/27 09:23:22;;;;;;;;;;;16.10;80.10;;;;;;5270181;28;19904;-83
2022/03/27 09:25:55;;;;;;;;;;;16.90;78.30;;;;;;5270173;28;19908;-78
2022/03/27 09:28:40;;;;;;;;;;;16.40;78.80;;;;;;5270148;28;19916;-76
2022/03/27 09:31:13;;;;;;;;;;;16.60;75.60;;;;;;5270030;28;19943;-79
2022/03/27 09:33:47;;;;;;;;;;;16.50;75.90;;;;;;5268167;28;19904;-82
2022/03/27 09:36:19;;;;;;;;;;;17.10;76.60;;;;;;5268742;28;19911;-82
2022/03/27 09:38:57;;;;;;;;;;;16.80;70.30;;;;;;5269999;28;20328;-81
2022/03/27 09:41:29;;;;;;;;;;;17.00;72.60;;;;;;5269915;28;20304;-81
2022/03/27 09:44:02;;;;;;;;;;;17.30;69.80;;;;;;5270287;28;19965;-81
2022/03/27 09:46:47;;;;;;;;;;;17.90;75.00;;;;;;5268541;28;19908;-81
2022/03/27 09:49:20;;;;;;;;;;;17.30;69.50;;;;;;5268519;28;20363;-81
2022/03/27 09:51:51;;;;;;;;;;;17.30;67.50;;;;;;5269828;28;20006;-81
2022/03/27 09:54:22;;;;;;;;;;;17.20;68.60;;;;;;5269769;28;19956;-80
2022/03/27 09:56:53;;;;;;;;;;;17.40;68.20;;;;;;5268132;28;19920;-80
2022/03/27 09:59:27;;;;;;;;;;;17.50;67.60;;;;;;5269651;28;20350;-81
2022/03/27 10:02:17;;;;;;;;;;;17.70;66.20;;;;;;5268580;28;19904;-80
2022/03/27 10:04:51;;;;;;;;;;;18.20;65.80;;;;;;5269656;28;19904;-82
2022/03/27 10:07:24;;;;;;;;;;;18.00;63.50;;;;;;5269762;28;20348;-82
2022/03/27 10:09:55;;;;;;;;;;;17.90;65.60;;;;;;5269580;28;20241;-81
2022/03/27 10:12:28;;;;;;;;;;;17.90;65.50;;;;;;5269588;28;19907;-81
2022/03/27 10:15:00;;;;;;;;;;;18.50;65.30;;;;;;5268255;28;19904;-81
2022/03/27 10:17:32;;;;;;;;;;;18.30;64.10;;;;;;5269633;28;20293;-81
2022/03/27 10:20:08;;;;;;;;;;;18.20;62.00;;;;;;5268161;28;19904;-83
2022/03/27 10:22:43;;;;;;;;;;;18.70;64.60;;;;;;5269502;28;19904;-79
2022/03/27 10:25:14;;;;;;;;;;;18.60;63.60;;;;;;5269372;28;19930;-81
2022/03/27 10:27:46;;;;;;;;;;;18.30;61.80;;;;;;5269392;28;19919;-78
2022/03/27 10:30:17;;;;;;;;;;;18.20;59.60;;;;;;5269138;28;19982;-81
2022/03/27 10:32:47;;;;;;;;;;;18.80;61.10;;;;;;5269496;28;20263;-78
2022/03/27 10:35:29;;;;;;;;;;;19.40;59.20;;;;;;5269337;28;19911;-77
2022/03/27 10:38:12;;;;;;;;;;;18.70;58.30;;;;;;5269408;28;19911;-76
2022/03/27 10:41:01;;;;;;;;;;;18.60;58.50;;;;;;5269461;28;19908;-80
2022/03/27 10:43:51;;;;;;;;;;;19.60;60.10;;;;;;5269274;28;19908;-76
2022/03/27 10:46:23;;;;;;;;;;;19.10;58.70;;;;;;5272079;28;19908;-76
2022/03/27 10:49:09;;;;;;;;;;;19.10;60.10;;;;;;5273330;28;19970;-76
2022/03/27 10:51:42;;;;;;;;;;;19.00;59.90;;;;;;5273393;28;20344;-80
2022/03/27 10:54:18;;;;;;;;;;;18.50;60.50;;;;;;5273071;28;20279;-80
2022/03/27 10:56:50;;;;;;;;;;;18.50;59.10;;;;;;5272421;28;19916;-77
2022/03/27 10:59:22;;;;;;;;;;;19.60;58.20;;;;;;5272716;28;20690;-77
2022/03/27 11:01:54;;;;;;;;;;;19.60;58.70;;;;;;5273093;28;19908;-76
2022/03/27 11:04:34;;;;;;;;;;;19.40;57.50;;;;;;5272983;28;19904;-76
2022/03/27 11:07:19;;;;;;;;;;;19.90;57.90;;;;;;5273168;28;19912;-78
2022/03/27 11:09:50;;;;;;;;;;;19.20;57.10;;;;;;5272881;28;20391;-79
2022/03/27 11:12:28;;;;;;;;;;;19.80;58.40;;;;;;5272854;28;19904;-76
2022/03/27 11:15:00;;;;;;;;;;;20.00;58.70;;;;;;5272615;28;19947;-76
2022/03/27 11:17:35;;;;;;;;;;;19.70;55.50;;;;;;5271938;28;19912;-76
2022/03/27 11:20:07;;;;;;;;;;;20.60;56.00;;;;;;5272023;28;19911;-76
2022/03/27 11:22:42;;;;;;;;;;;20.10;56.60;;;;;;5271975;28;19911;-76
2022/03/27 11:25:33;;;;;;;;;;;20.00;58.00;;;;;;5271835;28;19952;-76
2022/03/27 11:28:08;;;;;;;;;;;20.30;60.00;;;;;;5271906;28;19912;-76
2022/03/27 11:30:48;;;;;;;;;;;19.30;67.00;;;;;;5271773;28;19943;-78
2022/03/27 11:33:31;;;;;;;;;;;19.60;67.90;;;;;;5271960;28;19904;-76
2022/03/27 11:36:04;;;;;;;;;;;19.60;69.80;;;;;;5271821;28;20282;-79
2022/03/27 11:38:54;;;;;;;;;;;19.50;69.20;;;;;;5271555;28;19912;-76
2022/03/27 11:41:25;;;;;;;;;;;19.70;69.90;;;;;;5271856;28;19958;-76
2022/03/27 11:44:17;;;;;;;;;;;20.10;69.60;;;;;;5270293;28;20296;-80
2022/03/27 11:46:53;;;;;;;;;;;20.30;56.30;;;;;;5271546;28;19911;-76
2022/03/27 11:49:36;;;;;;;;;;;20.20;50.40;;;;;;5272059;28;19904;-80
2022/03/27 11:52:07;;;;;;;;;;;20.40;51.00;;;;;;5271922;28;19912;-76
2022/03/27 11:54:38;;;;;;;;;;;21.20;50.60;;;;;;5270409;28;19926;-76
2022/03/27 11:57:09;;;;;;;;;;;20.90;54.40;;;;;;5269973;28;19920;-80
2022/03/27 11:59:46;;;;;;;;;;;20.00;57.30;;;;;;5271633;28;19940;-76
2022/03/27 12:02:17;;;;;;;;;;;20.40;60.00;;;;;;5271737;28;19908;-80
2022/03/27 12:05:01;;;;;;;;;;;20.40;60.00;;;;;;5271383;28;19990;-80
2022/03/27 12:07:49;;;;;;;;;;;20.50;57.50;;;;;;5270848;28;19904;-82
2022/03/27 12:10:21;;;;;;;;;;;21.10;56.70;;;;;;5270734;28;19905;-75
2022/03/27 12:12:57;;;;;;;;;;;20.30;55.50;;;;;;5270727;28;19908;-78
2022/03/27 12:15:37;;;;;;;;;;;20.70;56.20;;;;;;5270771;28;20014;-79
2022/03/27 12:18:08;;;;;;;;;;;20.90;57.80;;;;;;5269540;28;19911;-78
2022/03/27 12:20:48;;;;;;;;;;;20.50;57.10;;;;;;5270845;28;20006;-78
2022/03/27 12:23:24;;;;;;;;;;;20.80;49.70;;;;;;5270700;28;19908;-79
2022/03/27 12:29:39;;;;;;;;;;;20.60;44.30;;;;;;5271066;28;19992;-79
2022/03/27 12:32:03;;;;;;;;;;;20.30;54.40;;;;;;5295146;27;20685;-80
2022/03/27 12:34:39;;;;;;;;;;;20.60;59.90;;;;;;5300332;27;19907;-81
2022/03/27 12:37:15;;;;;;;;;;;20.50;57.10;;;;;;5299459;27;19973;-76
2022/03/27 12:39:47;;;;;;;;;;;20.70;59.20;;;;;;5291925;27;20262;-79
2022/03/27 12:42:35;;;;;;;;;;;20.20;61.20;;;;;;5300279;27;19910;-79
2022/03/27 12:45:17;;;;;;;;;;;20.20;60.50;;;;;;5294074;27;19915;-80
2022/03/27 12:48:13;;;;;;;;;;;20.30;59.20;;;;;;5292111;28;19904;-81
2022/03/27 12:50:51;;;;;;;;;;;20.40;58.40;;;;;;5291763;28;19955;-81
2022/03/27 12:53:22;;;;;;;;;;;20.50;61.20;;;;;;5291657;27;19956;-80
2022/03/27 12:55:55;;;;;;;;;;;20.10;60.60;;;;;;5291388;28;19916;-81
2022/03/27 12:58:38;;;;;;;;;;;20.90;65.90;;;;;;5291585;28;19916;-81
2022/03/27 13:01:10;;;;;;;;;;;20.20;67.00;;;;;;5291708;27;20541;-80
2022/03/27 13:04:01;;;;;;;;;;;20.10;67.50;;;;;;5291871;28;20007;-80
2022/03/27 13:06:36;;;;;;;;;;;20.40;66.40;;;;;;5288136;27;19969;-83
2022/03/27 13:09:10;;;;;;;;;;;20.60;69.20;;;;;;5302716;27;19911;-81
2022/03/27 13:11:42;;;;;;;;;;;20.20;69.60;;;;;;5273081;28;20017;-76
2022/03/27 13:14:15;;;;;;;;;;;20.60;70.20;;;;;;5270181;28;19904;-77
2022/03/27 13:16:50;;;;;;;;;;;20.30;63.70;;;;;;5270126;28;19911;-80
2022/03/27 13:19:22;;;;;;;;;;;20.50;67.80;;;;;;5270242;28;19915;-75
2022/03/27 13:21:56;;;;;;;;;;;20.50;71.40;;;;;;5270192;28;19930;-76
2022/03/27 13:24:28;;;;;;;;;;;20.20;80.10;;;;;;5269965;28;19910;-76
2022/03/27 13:27:03;;;;;;;;;;;20.40;80.70;;;;;;5269900;28;19908;-81
2022/03/27 13:29:36;;;;;;;;;;;20.20;76.90;;;;;;5269778;28;20339;-81
2022/03/27 13:32:08;;;;;;;;;;;20.10;78.80;;;;;;5270091;28;19987;-81
2022/03/27 13:34:38;;;;;;;;;;;19.80;83.80;;;;;;5269891;28;20429;-75
2022/03/27 13:37:09;;;;;;;;;;;20.00;85.50;;;;;;5269921;28;19912;-79
2022/03/27 13:39:40;;;;;;;;;;;20.10;85.50;;;;;;5268583;28;19926;-77
2022/03/27 13:44:59;;;;;;;;;;;19.30;87.50;;;;;;5269587;28;19957;-75
2022/03/27 13:47:30;;;;;;;;;;;19.50;88.30;;;;;;5268870;28;19904;-79
2022/03/27 13:50:01;;;;;;;;;;;19.10;86.40;;;;;;5269854;28;20274;-75
2022/03/27 13:52:31;;;;;;;;;;;19.00;89.20;;;;;;5268420;28;19911;-80
2022/03/27 13:55:02;;;;;;;;;;;19.30;85.90;;;;;;5269568;28;20220;-76
2022/03/27 13:57:33;;;;;;;;;;;19.10;87.50;;;;;;5269107;28;19920;-75
2022/03/27 14:00:04;;;;;;;;;;;19.20;86.40;;;;;;5269653;28;20437;-76
2022/03/27 14:02:35;;;;;;;;;;;19.30;83.70;;;;;;5269123;28;19911;-75
2022/03/27 14:05:06;;;;;;;;;;;19.50;82.90;;;;;;5269442;28;19904;-75
2022/03/27 14:07:37;;;;;;;;;;;19.50;82.60;;;;;;5269453;28;19904;-76
2022/03/27 14:10:08;;;;;;;;;;;19.10;83.50;;;;;;5268378;28;19933;-75
2022/03/27 14:12:38;;;;;;;;;;;19.20;86.40;;;;;;5269642;28;19904;-80
2022/03/27 14:15:09;;;;;;;;;;;18.60;86.40;;;;;;5268236;28;19990;-75
2022/03/27 14:17:40;;;;;;;;;;;18.30;88.70;;;;;;5268213;28;20271;-77
2022/03/27 14:20:11;;;;;;;;;;;18.30;89.70;;;;;;5272735;28;19908;-78
2022/03/27 14:22:42;;;;;;;;;;;18.20;88.80;;;;;;5273529;28;19949;-82
2022/03/27 14:25:13;;;;;;;;;;;18.40;88.70;;;;;;5273600;28;20352;-75
2022/03/27 14:27:46;;;;;;;;;;;18.30;89.70;;;;;;5273651;28;19908;-75
2022/03/27 14:30:16;;;;;;;;;;;18.40;90.00;;;;;;5274044;28;19904;-75
2022/03/27 14:32:47;;;;;;;;;;;18.50;89.60;;;;;;5272264;28;19904;-81
2022/03/27 14:35:18;;;;;;;;;;;18.30;89.30;;;;;;5272193;28;20050;-81
2022/03/27 14:37:49;;;;;;;;;;;18.20;88.40;;;;;;5273618;28;20423;-83
2022/03/27 14:40:19;;;;;;;;;;;18.20;87.90;;;;;;5272303;28;19904;-76
2022/03/27 14:42:50;;;;;;;;;;;18.10;89.40;;;;;;5273534;28;19953;-76
2022/03/27 14:45:21;;;;;;;;;;;18.20;91.20;;;;;;5274090;28;20428;-76
2022/03/27 14:47:54;;;;;;;;;;;18.20;88.80;;;;;;5273424;28;19915;-76
2022/03/27 14:50:25;;;;;;;;;;;18.30;89.30;;;;;;5273402;28;20049;-75
2022/03/27 14:52:55;;;;;;;;;;;18.10;86.80;;;;;;5273198;28;19994;-76
2022/03/27 14:58:17;;;;;;;;;;;18.10;85.30;;;;;;5273327;28;20020;-75